Time;durP1;ratioP1;P1;durP2;ratioP2;P2;SDS_P1;SDS_P2;PMS_P1;PMS_P2;Temp;Humidity;BMP_temperature;BMP_pressure;BME280_temperature;BME280_humidity;BME280_pressure;Samples;Min_cycle;Max_cycle;Signal;HPM_P1;HPM_P2
2021/04/29 00:01:53;;;;;;;11.50;9.67;;;12.70;84.90;;;;;;5005533;28;20809;-45
2021/04/29 00:04:20;;;;;;;10.07;9.07;;;12.70;85.70;;;;;;5006700;28;20475;-45
2021/04/29 00:06:46;;;;;;;10.50;9.10;;;12.70;85.70;;;;;;5008868;28;20828;-45
2021/04/29 00:09:12;;;;;;;13.90;9.37;;;12.70;85.90;;;;;;5006874;28;20829;-45
2021/04/29 00:11:39;;;;;;;10.23;9.23;;;12.70;85.70;;;;;;5002536;28;20464;-45
2021/04/29 00:14:07;;;;;;;13.70;9.40;;;12.60;85.90;;;;;;5006490;28;20554;-45
2021/04/29 00:16:34;;;;;;;11.50;9.60;;;12.60;86.10;;;;;;5005462;28;20515;-45
2021/04/29 00:19:00;;;;;;;10.57;9.50;;;12.60;86.30;;;;;;5009122;28;21210;-45
2021/04/29 00:21:27;;;;;;;12.60;9.37;;;12.60;86.50;;;;;;5006477;28;20459;-45
2021/04/29 00:23:53;;;;;;;11.67;9.77;;;12.50;86.40;;;;;;5010455;28;20466;-45
2021/04/29 00:26:20;;;;;;;10.47;9.37;;;12.60;85.50;;;;;;5007888;28;20464;-45
2021/04/29 00:28:46;;;;;;;11.90;10.47;;;12.60;85.50;;;;;;5005500;28;20464;-45
2021/04/29 00:31:12;;;;;;;13.30;8.90;;;12.60;85.90;;;;;;5006360;28;20547;-45
2021/04/29 00:33:39;;;;;;;12.50;9.20;;;12.50;86.20;;;;;;5010203;28;20510;-45
2021/04/29 00:36:05;;;;;;;10.33;9.23;;;12.60;86.30;;;;;;5006596;28;20499;-45
2021/04/29 00:38:31;;;;;;;12.43;8.87;;;12.60;86.20;;;;;;5011213;28;20456;-45
2021/04/29 00:41:01;;;;;;;11.43;10.33;;;12.60;86.00;;;;;;5007662;28;20471;-45
2021/04/29 00:43:27;;;;;;;10.73;9.60;;;12.60;86.20;;;;;;5008391;28;20457;-45
2021/04/29 00:45:53;;;;;;;11.80;10.03;;;12.50;86.40;;;;;;5008430;28;20546;-44
2021/04/29 00:48:20;;;;;;;11.00;9.17;;;12.60;85.50;;;;;;5009855;28;20994;-45
2021/04/29 00:50:46;;;;;;;11.60;10.23;;;12.60;85.50;;;;;;5040378;28;20457;-45
2021/04/29 00:53:15;;;;;;;12.77;9.47;;;12.60;85.80;;;;;;5013535;28;20452;-45
2021/04/29 00:55:42;;;;;;;10.63;8.97;;;12.50;86.10;;;;;;5022674;28;20488;-45
2021/04/29 00:58:09;;;;;;;12.73;10.53;;;12.50;86.30;;;;;;5004312;28;20462;-45
2021/04/29 01:00:39;;;;;;;17.20;10.53;;;12.50;86.20;;;;;;5006474;28;20468;-45
2021/04/29 01:03:16;;;;;;;11.93;10.67;;;12.50;86.20;;;;;;5007600;28;20463;-45
2021/04/29 01:05:50;;;;;;;11.60;10.30;;;12.60;85.90;;;;;;5008467;28;20487;-45
2021/04/29 01:08:28;;;;;;;10.87;9.60;;;12.60;85.80;;;;;;5008471;28;20465;-45
2021/04/29 01:11:03;;;;;;;13.60;11.53;;;12.50;86.00;;;;;;5004756;28;20858;-45
2021/04/29 01:13:32;;;;;;;12.10;10.90;;;12.40;86.20;;;;;;5001604;28;20468;-45
2021/04/29 01:16:00;;;;;;;11.67;10.50;;;12.40;86.30;;;;;;5019869;28;20495;-45
2021/04/29 01:18:26;;;;;;;13.43;11.37;;;12.40;86.50;;;;;;5008541;28;20916;-45
2021/04/29 01:21:04;;;;;;;12.77;9.87;;;12.40;86.50;;;;;;5008666;28;20491;-45
2021/04/29 01:23:40;;;;;;;13.50;9.67;;;12.40;86.50;;;;;;5005054;28;20467;-45
2021/04/29 01:26:16;;;;;;;12.77;10.03;;;12.40;86.50;;;;;;5005669;28;20499;-45
2021/04/29 01:28:43;;;;;;;10.73;9.60;;;12.40;86.70;;;;;;5011241;28;20836;-45
2021/04/29 01:31:11;;;;;;;12.40;10.00;;;12.40;86.70;;;;;;5006668;28;20469;-45
2021/04/29 01:33:39;;;;;;;15.17;10.10;;;12.40;86.50;;;;;;5005458;28;20818;-45
2021/04/29 01:36:08;;;;;;;9.93;8.90;;;12.40;86.70;;;;;;5011201;28;20487;-45
2021/04/29 01:38:37;;;;;;;10.90;9.60;;;12.40;86.70;;;;;;5009679;28;20506;-44
2021/04/29 01:41:04;;;;;;;10.83;9.40;;;12.50;85.90;;;;;;5019377;28;20832;-45
2021/04/29 01:43:32;;;;;;;12.70;9.83;;;12.50;85.70;;;;;;5009960;28;20916;-45
2021/04/29 01:46:01;;;;;;;11.60;9.30;;;12.40;85.90;;;;;;5004946;28;20464;-44
2021/04/29 01:48:29;;;;;;;15.20;10.50;;;12.30;86.20;;;;;;5008974;28;20471;-45
2021/04/29 01:50:56;;;;;;;11.50;10.27;;;12.30;86.50;;;;;;5010274;28;20469;-45
2021/04/29 01:53:27;;;;;;;13.40;10.40;;;12.30;86.70;;;;;;5020852;28;20457;-45
2021/04/29 01:55:54;;;;;;;11.83;10.30;;;12.30;86.70;;;;;;5009907;28;20488;-45
2021/04/29 01:58:22;;;;;;;10.77;9.67;;;12.30;86.80;;;;;;5006186;28;20463;-45
2021/04/29 02:00:50;;;;;;;12.87;10.70;;;12.30;86.80;;;;;;5007282;28;20949;-45
2021/04/29 02:03:17;;;;;;;11.13;10.03;;;12.30;86.90;;;;;;5005717;28;20454;-45
2021/04/29 02:05:43;;;;;;;11.13;9.63;;;12.30;86.90;;;;;;5003593;28;20456;-45
2021/04/29 02:08:09;;;;;;;12.03;10.63;;;12.20;87.00;;;;;;5006485;28;20464;-46
2021/04/29 02:10:36;;;;;;;12.27;9.80;;;12.20;87.00;;;;;;5007654;28;20468;-45
2021/04/29 02:13:08;;;;;;;11.67;9.50;;;12.20;87.00;;;;;;5007385;28;20831;-45
2021/04/29 02:15:39;;;;;;;11.63;9.97;;;12.20;87.00;;;;;;5018920;28;20782;-45
2021/04/29 02:18:09;;;;;;;11.43;9.60;;;12.30;86.90;;;;;;5006323;28;20945;-45
2021/04/29 02:20:39;;;;;;;13.70;10.67;;;12.20;86.90;;;;;;5003374;28;20661;-45
2021/04/29 02:23:10;;;;;;;10.57;9.47;;;12.20;87.00;;;;;;5006232;28;20676;-47
2021/04/29 02:25:39;;;;;;;12.20;9.87;;;12.20;86.90;;;;;;5008299;28;20957;-46
2021/04/29 02:28:05;;;;;;;13.50;10.73;;;12.20;86.90;;;;;;5005992;28;20830;-47
2021/04/29 02:30:34;;;;;;;15.03;11.33;;;12.20;87.00;;;;;;5005652;28;20464;-46
2021/04/29 02:33:01;;;;;;;12.07;10.30;;;12.20;87.10;;;;;;5005800;28;20468;-47
2021/04/29 02:35:29;;;;;;;14.30;10.03;;;12.20;87.00;;;;;;5007829;28;20495;-47
2021/04/29 02:37:55;;;;;;;12.20;10.23;;;12.20;87.00;;;;;;5008423;28;20491;-45
2021/04/29 02:40:24;;;;;;;13.30;10.67;;;12.20;87.00;;;;;;5010362;28;20464;-45
2021/04/29 02:43:05;;;;;;;12.40;10.13;;;12.10;87.00;;;;;;5007682;28;22561;-45
2021/04/29 02:45:32;;;;;;;12.30;10.00;;;12.10;87.00;;;;;;5005756;28;20547;-45
2021/04/29 02:47:59;;;;;;;13.97;10.90;;;12.10;87.00;;;;;;5006231;28;20456;-43
2021/04/29 02:50:26;;;;;;;13.60;10.70;;;12.10;87.00;;;;;;5007300;28;20973;-45
2021/04/29 02:52:57;;;;;;;14.67;11.10;;;12.10;87.10;;;;;;5015817;28;20466;-45
2021/04/29 02:55:24;;;;;;;10.63;9.47;;;12.10;87.20;;;;;;5004494;28;20485;-45
2021/04/29 02:57:57;;;;;;;10.87;9.63;;;12.10;87.10;;;;;;5007059;28;20483;-45
2021/04/29 03:00:25;;;;;;;13.87;10.67;;;12.10;87.20;;;;;;5000550;28;20469;-45
2021/04/29 03:02:54;;;;;;;14.47;11.03;;;12.10;87.10;;;;;;5007046;28;20464;-45
2021/04/29 03:05:20;;;;;;;12.30;10.37;;;12.00;87.20;;;;;;5002795;28;20468;-45
2021/04/29 03:07:46;;;;;;;14.23;11.57;;;12.00;87.20;;;;;;5006837;28;20830;-45
2021/04/29 03:10:13;;;;;;;12.23;10.90;;;12.00;87.00;;;;;;5007391;28;20483;-45
2021/04/29 03:12:40;;;;;;;13.33;10.50;;;12.00;87.00;;;;;;5005564;28;20462;-45
2021/04/29 03:15:08;;;;;;;11.47;10.27;;;12.10;86.70;;;;;;5005713;28;20480;-45
2021/04/29 03:17:35;;;;;;;16.27;11.73;;;12.00;86.70;;;;;;5020437;28;20461;-45
2021/04/29 03:20:03;;;;;;;14.87;12.10;;;12.00;86.90;;;;;;5002806;28;20917;-45
2021/04/29 03:22:29;;;;;;;14.47;11.60;;;12.00;87.00;;;;;;5004440;28;20460;-45
2021/04/29 03:24:55;;;;;;;14.73;12.10;;;12.00;86.90;;;;;;5002962;28;20472;-45
2021/04/29 03:27:23;;;;;;;14.93;11.37;;;11.90;87.00;;;;;;5005497;28;20715;-45
2021/04/29 03:29:50;;;;;;;15.60;12.73;;;12.00;87.00;;;;;;5009264;28;20456;-45
2021/04/29 03:32:16;;;;;;;14.00;11.97;;;11.90;87.00;;;;;;5001937;28;20972;-46
2021/04/29 03:34:43;;;;;;;16.13;13.20;;;11.90;87.20;;;;;;5004126;28;20875;-43
2021/04/29 03:37:09;;;;;;;16.90;11.67;;;11.90;87.20;;;;;;5007138;28;20492;-46
2021/04/29 03:39:35;;;;;;;15.77;12.60;;;11.90;87.20;;;;;;5002202;28;20506;-43
2021/04/29 03:42:02;;;;;;;17.30;13.43;;;11.90;87.40;;;;;;5022666;28;20560;-45
2021/04/29 03:44:29;;;;;;;14.80;12.20;;;11.90;87.40;;;;;;5008454;28;20532;-45
2021/04/29 03:46:55;;;;;;;15.40;13.17;;;11.90;87.50;;;;;;5006040;28;20957;-45
2021/04/29 03:49:22;;;;;;;14.80;12.77;;;11.90;87.40;;;;;;5007871;28;20910;-45
2021/04/29 03:51:48;;;;;;;17.43;13.00;;;11.90;87.50;;;;;;5003796;28;20460;-46
2021/04/29 03:54:14;;;;;;;18.03;12.90;;;11.90;87.50;;;;;;5003974;28;20468;-45
2021/04/29 03:56:41;;;;;;;16.80;13.20;;;11.90;87.50;;;;;;5008107;28;20823;-46
2021/04/29 03:59:08;;;;;;;20.83;14.40;;;11.90;87.60;;;;;;5002968;28;20457;-45
2021/04/29 04:01:34;;;;;;;20.43;13.60;;;12.00;87.00;;;;;;5002556;28;20457;-45
2021/04/29 04:04:00;;;;;;;17.43;13.03;;;11.90;87.20;;;;;;5018363;28;22037;-45
2021/04/29 04:06:28;;;;;;;19.30;14.17;;;11.90;87.50;;;;;;5002182;28;20992;-45
2021/04/29 04:08:54;;;;;;;16.70;13.20;;;12.00;86.80;;;;;;5021031;28;20466;-45
2021/04/29 04:11:21;;;;;;;21.40;15.27;;;12.00;86.10;;;;;;5006863;28;21040;-45
2021/04/29 04:13:48;;;;;;;21.20;15.53;;;12.00;85.80;;;;;;5003182;28;20464;-45
2021/04/29 04:16:16;;;;;;;18.53;13.67;;;12.00;86.10;;;;;;5020937;28;20549;-45
2021/04/29 04:18:43;;;;;;;17.90;13.30;;;12.00;86.40;;;;;;5000966;28;21096;-45
2021/04/29 04:21:09;;;;;;;16.67;13.77;;;12.00;85.50;;;;;;5004225;28;20528;-45
2021/04/29 04:23:36;;;;;;;21.17;14.40;;;12.00;85.30;;;;;;5003304;28;20456;-44
2021/04/29 04:26:02;;;;;;;15.37;13.33;;;12.00;84.90;;;;;;5004036;28;20491;-45
2021/04/29 04:28:29;;;;;;;18.47;14.03;;;12.00;84.90;;;;;;5004046;28;20475;-45
2021/04/29 04:30:55;;;;;;;15.90;12.50;;;11.90;85.00;;;;;;5002712;28;20457;-45
2021/04/29 04:33:22;;;;;;;15.80;12.67;;;11.80;84.80;;;;;;5008271;28;20989;-45
2021/04/29 04:35:48;;;;;;;16.77;12.80;;;11.80;85.50;;;;;;5020267;28;21025;-45
2021/04/29 04:38:15;;;;;;;18.37;13.50;;;11.80;85.70;;;;;;5007344;28;20456;-45
2021/04/29 04:40:41;;;;;;;17.50;14.20;;;11.70;85.90;;;;;;5003074;28;20543;-45
2021/04/29 04:43:07;;;;;;;20.87;13.13;;;11.80;85.90;;;;;;5005399;28;20540;-45
2021/04/29 04:45:33;;;;;;;20.70;14.03;;;11.70;85.90;;;;;;5002678;28;20460;-45
2021/04/29 04:47:59;;;;;;;17.70;14.00;;;11.70;86.50;;;;;;5002947;28;20468;-45
2021/04/29 04:50:26;;;;;;;18.90;14.63;;;11.80;86.60;;;;;;5006782;28;20476;-45
2021/04/29 04:52:52;;;;;;;19.80;14.10;;;11.80;85.90;;;;;;5000865;28;20560;-45
2021/04/29 04:55:19;;;;;;;18.07;13.40;;;11.80;86.40;;;;;;5008878;28;21007;-45
2021/04/29 04:57:46;;;;;;;19.07;14.00;;;11.90;85.70;;;;;;5008344;28;20460;-45
2021/04/29 05:00:13;;;;;;;19.47;14.57;;;11.90;85.40;;;;;;5010781;28;20448;-45
2021/04/29 05:02:40;;;;;;;17.53;13.17;;;11.90;85.60;;;;;;5020993;28;20582;-45
2021/04/29 05:05:07;;;;;;;20.33;13.50;;;11.90;85.50;;;;;;5003827;28;20464;-45
2021/04/29 05:07:33;;;;;;;16.57;12.60;;;11.90;85.40;;;;;;5005669;28;20462;-45
2021/04/29 05:10:00;;;;;;;17.07;13.23;;;11.90;85.20;;;;;;5006148;28;20456;-45
2021/04/29 05:12:26;;;;;;;16.70;13.30;;;11.90;84.60;;;;;;5007747;28;20458;-45
2021/04/29 05:14:53;;;;;;;17.00;12.37;;;11.90;84.80;;;;;;5007787;28;20958;-45
2021/04/29 05:17:19;;;;;;;19.40;14.20;;;11.90;84.80;;;;;;5003738;28;20495;-45
2021/04/29 05:19:45;;;;;;;14.73;12.67;;;12.00;84.90;;;;;;5006648;28;20452;-45
2021/04/29 05:22:14;;;;;;;18.20;14.50;;;12.00;84.60;;;;;;5006653;28;21027;-45
2021/04/29 05:24:42;;;;;;;17.43;13.87;;;12.00;84.50;;;;;;5004253;28;20457;-45
2021/04/29 05:27:09;;;;;;;18.63;14.43;;;12.00;84.50;;;;;;5002073;28;20928;-45
2021/04/29 05:29:36;;;;;;;20.40;13.40;;;11.90;85.20;;;;;;5019681;28;20479;-45
2021/04/29 05:32:02;;;;;;;17.10;14.60;;;12.00;84.50;;;;;;5005230;28;20475;-45
2021/04/29 05:34:29;;;;;;;19.00;14.00;;;12.00;84.60;;;;;;5007511;28;20481;-45
2021/04/29 05:36:56;;;;;;;20.70;14.80;;;11.90;85.10;;;;;;5009399;28;20580;-45
2021/04/29 05:39:23;;;;;;;18.47;13.70;;;11.90;85.50;;;;;;5007348;28;20456;-45
2021/04/29 05:41:49;;;;;;;18.57;15.00;;;12.00;86.00;;;;;;5007257;28;20506;-45
2021/04/29 05:44:15;;;;;;;17.43;13.97;;;12.00;86.00;;;;;;5005502;28;20460;-45
2021/04/29 05:46:43;;;;;;;17.70;14.10;;;12.00;86.10;;;;;;5023388;28;20949;-45
2021/04/29 05:49:12;;;;;;;20.27;14.57;;;12.00;86.30;;;;;;5009006;28;20510;-45
2021/04/29 05:51:39;;;;;;;18.57;14.83;;;12.10;86.50;;;;;;5009747;28;20456;-45
2021/04/29 05:54:05;;;;;;;19.60;14.20;;;12.10;86.60;;;;;;5008312;28;20471;-45
2021/04/29 05:56:32;;;;;;;19.37;14.63;;;12.10;86.50;;;;;;5008243;28;20492;-45
2021/04/29 05:58:58;;;;;;;18.70;14.37;;;12.20;86.10;;;;;;5002088;28;20452;-45
2021/04/29 06:01:24;;;;;;;20.70;15.23;;;12.30;86.00;;;;;;5007908;28;20455;-45
2021/04/29 06:03:50;;;;;;;17.90;14.57;;;12.30;85.70;;;;;;5008623;28;21493;-45
2021/04/29 06:06:17;;;;;;;19.17;14.33;;;12.30;85.70;;;;;;5007278;28;20472;-45
2021/04/29 06:08:43;;;;;;;20.87;14.53;;;12.40;85.80;;;;;;5007904;28;20543;-45
2021/04/29 06:11:09;;;;;;;19.53;14.53;;;12.40;85.80;;;;;;5010308;28;20547;-45
2021/04/29 06:13:36;;;;;;;18.77;13.67;;;12.50;85.70;;;;;;5008884;28;22036;-45
2021/04/29 06:16:02;;;;;;;19.27;14.20;;;12.50;85.70;;;;;;5010228;28;20858;-45
2021/04/29 06:18:29;;;;;;;17.93;13.83;;;12.60;84.40;;;;;;5010380;28;20536;-45
2021/04/29 06:20:55;;;;;;;18.67;14.83;;;12.60;83.90;;;;;;5007435;28;20476;-45
2021/04/29 06:23:24;;;;;;;17.70;13.50;;;12.70;83.00;;;;;;5006574;28;20478;-45
2021/04/29 06:25:50;;;;;;;17.70;15.00;;;12.70;82.70;;;;;;5009833;28;20458;-45
2021/04/29 06:28:17;;;;;;;16.27;13.47;;;12.70;83.00;;;;;;5009955;28;20453;-45
2021/04/29 06:30:43;;;;;;;22.17;13.30;;;12.70;83.30;;;;;;5005955;28;21041;-45
2021/04/29 06:33:11;;;;;;;18.43;13.80;;;12.80;82.90;;;;;;5010082;28;20456;-45
2021/04/29 06:35:38;;;;;;;20.00;14.07;;;12.80;81.60;;;;;;5009467;28;20492;-45
2021/04/29 06:38:04;;;;;;;18.23;14.10;;;12.80;82.10;;;;;;5009474;28;20457;-45
2021/04/29 06:40:30;;;;;;;18.77;13.43;;;12.80;81.60;;;;;;5010307;28;20456;-45
2021/04/29 06:42:56;;;;;;;17.10;12.93;;;12.90;82.10;;;;;;5006389;28;20461;-45
2021/04/29 06:45:23;;;;;;;21.47;14.67;;;12.90;81.70;;;;;;5024237;28;20532;-45
2021/04/29 06:47:49;;;;;;;17.13;13.80;;;12.90;82.00;;;;;;5010840;28;20448;-45
2021/04/29 06:50:17;;;;;;;20.23;13.37;;;13.00;82.10;;;;;;5008374;28;20906;-45
2021/04/29 06:52:43;;;;;;;15.17;12.97;;;13.00;81.80;;;;;;5006967;28;20479;-45
2021/04/29 06:55:09;;;;;;;14.47;12.00;;;13.10;82.30;;;;;;5007814;28;20543;-45
2021/04/29 06:57:36;;;;;;;15.83;11.37;;;13.20;82.60;;;;;;5004619;28;20457;-45
2021/04/29 07:00:03;;;;;;;14.33;11.00;;;13.40;82.30;;;;;;4999321;28;20468;-44
2021/04/29 07:02:30;;;;;;;12.90;10.30;;;13.50;80.00;;;;;;5007800;28;20471;-45
2021/04/29 07:05:03;;;;;;;12.03;9.67;;;13.60;78.00;;;;;;4999959;28;20480;-45
2021/04/29 07:07:30;;;;;;;12.53;10.93;;;13.60;77.70;;;;;;5000872;28;20834;-45
2021/04/29 07:09:56;;;;;;;17.10;11.90;;;13.60;78.00;;;;;;5002118;28;20472;-45
2021/04/29 07:12:22;;;;;;;11.67;9.70;;;13.70;77.60;;;;;;5002845;28;20483;-45
2021/04/29 07:14:48;;;;;;;12.13;10.70;;;13.80;78.50;;;;;;5021020;28;20452;-45
2021/04/29 07:17:15;;;;;;;11.57;9.90;;;13.80;77.30;;;;;;5004799;28;20495;-45
2021/04/29 07:19:42;;;;;;;14.10;12.60;;;13.80;77.70;;;;;;5021189;28;20878;-45
2021/04/29 07:22:08;;;;;;;13.73;10.57;;;13.90;77.50;;;;;;5005643;28;20983;-45
2021/04/29 07:24:35;;;;;;;12.93;9.83;;;13.90;76.70;;;;;;5006684;28;20467;-45
2021/04/29 07:27:03;;;;;;;12.60;8.93;;;13.90;77.00;;;;;;5001791;28;20468;-45
2021/04/29 07:29:32;;;;;;;16.20;10.70;;;13.90;75.90;;;;;;5005414;28;20461;-45
2021/04/29 07:32:00;;;;;;;13.13;10.77;;;13.90;75.40;;;;;;5020470;28;21007;-45
2021/04/29 07:34:27;;;;;;;10.93;9.70;;;13.90;75.30;;;;;;5007680;28;20466;-45
2021/04/29 07:36:53;;;;;;;12.20;10.20;;;13.90;76.00;;;;;;5007048;28;20494;-45
2021/04/29 07:39:20;;;;;;;12.60;10.90;;;13.90;75.30;;;;;;5006744;28;20457;-45
2021/04/29 07:41:48;;;;;;;13.13;11.43;;;14.00;74.40;;;;;;5004291;28;20472;-45
2021/04/29 07:44:16;;;;;;;23.30;17.00;;;14.00;74.70;;;;;;5007608;28;20535;-45
2021/04/29 07:46:43;;;;;;;13.63;10.33;;;14.00;73.60;;;;;;5008907;28;20965;-45
2021/04/29 07:49:09;;;;;;;14.90;11.30;;;14.00;73.50;;;;;;5009476;28;20463;-45
2021/04/29 07:51:36;;;;;;;13.40;11.30;;;13.90;75.00;;;;;;5006432;28;20946;-45
2021/04/29 07:54:04;;;;;;;13.97;12.47;;;13.90;74.80;;;;;;5009039;28;20456;-45
2021/04/29 07:56:31;;;;;;;15.60;12.57;;;13.90;75.00;;;;;;5015219;28;20548;-45
2021/04/29 07:58:57;;;;;;;19.07;11.87;;;14.00;74.20;;;;;;5008302;28;20480;-45
2021/04/29 08:01:24;;;;;;;12.53;11.33;;;14.00;74.60;;;;;;5008932;28;20460;-45
2021/04/29 08:03:50;;;;;;;13.87;12.40;;;14.10;74.40;;;;;;5011413;28;20510;-45
2021/04/29 08:06:17;;;;;;;15.30;11.97;;;14.20;74.10;;;;;;5008559;28;20869;-45
2021/04/29 08:08:43;;;;;;;14.00;11.20;;;14.30;73.60;;;;;;5006818;28;20465;-45
2021/04/29 08:11:14;;;;;;;15.43;11.47;;;14.40;73.60;;;;;;5010024;28;20484;-45
2021/04/29 08:13:41;;;;;;;12.23;10.93;;;14.50;72.90;;;;;;5009268;28;20459;-45
2021/04/29 08:16:08;;;;;;;14.63;10.50;;;14.70;71.70;;;;;;5005138;28;21123;-45
2021/04/29 08:18:34;;;;;;;14.10;12.03;;;14.90;71.10;;;;;;5008076;28;20440;-45
2021/04/29 08:21:00;;;;;;;13.90;10.67;;;15.00;70.60;;;;;;5007646;28;20834;-45
2021/04/29 08:23:26;;;;;;;13.13;11.93;;;15.10;70.50;;;;;;5023097;28;20963;-45
2021/04/29 08:25:53;;;;;;;10.50;9.30;;;15.30;67.20;;;;;;5005609;28;20958;-45
2021/04/29 08:28:19;;;;;;;12.60;9.93;;;15.40;65.70;;;;;;5007880;28;20467;-45
2021/04/29 08:30:45;;;;;;;11.80;10.70;;;15.50;67.50;;;;;;5010246;28;20450;-45
2021/04/29 08:33:12;;;;;;;12.27;10.97;;;15.50;68.50;;;;;;5012276;28;20843;-45
2021/04/29 08:35:38;;;;;;;15.90;11.77;;;15.60;67.50;;;;;;5012130;28;20468;-45
2021/04/29 08:38:04;;;;;;;14.27;12.77;;;15.60;68.80;;;;;;5013274;28;20850;-45
2021/04/29 08:40:31;;;;;;;13.30;11.90;;;15.60;68.40;;;;;;5010994;28;20452;-45
2021/04/29 08:42:58;;;;;;;11.80;10.57;;;15.50;68.30;;;;;;5024778;28;20444;-45
2021/04/29 08:45:27;;;;;;;12.43;11.10;;;15.40;68.70;;;;;;5011001;28;20456;-45
2021/04/29 08:47:55;;;;;;;14.00;10.53;;;15.40;67.80;;;;;;5008598;28;21012;-45
2021/04/29 08:50:24;;;;;;;12.10;10.67;;;15.50;67.40;;;;;;5006860;28;20470;-45
2021/04/29 08:52:51;;;;;;;12.33;11.23;;;15.60;67.00;;;;;;5010534;28;20453;-45
2021/04/29 08:55:24;;;;;;;12.70;11.40;;;15.80;66.80;;;;;;5007690;28;20496;-45
2021/04/29 08:57:56;;;;;;;11.83;10.60;;;16.00;64.80;;;;;;5009381;28;21039;-45
2021/04/29 09:00:23;;;;;;;10.87;9.77;;;16.10;65.00;;;;;;5007200;28;20552;-45
2021/04/29 09:02:54;;;;;;;14.23;10.57;;;16.40;62.80;;;;;;5010920;28;20475;-45
2021/04/29 09:05:23;;;;;;;11.93;10.67;;;16.70;63.50;;;;;;5008178;28;20532;-45
2021/04/29 09:08:04;;;;;;;13.57;12.17;;;17.10;62.80;;;;;;5010643;28;20456;-45
2021/04/29 09:10:31;;;;;;;11.63;10.40;;;17.50;62.20;;;;;;5008472;28;21066;-49
2021/04/29 09:12:59;;;;;;;11.23;10.03;;;17.90;59.10;;;;;;5009596;28;20559;-49
2021/04/29 09:15:33;;;;;;;12.80;9.00;;;18.20;57.20;;;;;;5010261;28;20476;-49
2021/04/29 09:18:16;;;;;;;17.83;11.97;;;18.50;56.30;;;;;;5011258;28;20448;-49
2021/04/29 09:21:08;;;;;;;14.20;11.90;;;18.80;57.10;;;;;;5011178;28;21157;-48
2021/04/29 09:23:37;;;;;;;12.20;10.17;;;19.20;56.10;;;;;;5010494;28;20984;-49
2021/04/29 09:26:05;;;;;;;12.97;10.67;;;19.70;53.10;;;;;;5021465;28;20551;-49
2021/04/29 09:28:45;;;;;;;13.13;9.97;;;19.90;51.60;;;;;;5004703;28;20468;-45
2021/04/29 09:31:17;;;;;;;12.13;10.03;;;20.00;52.30;;;;;;5006531;28;20535;-47
2021/04/29 09:33:55;;;;;;;11.37;10.13;;;20.20;51.10;;;;;;5004080;28;20469;-47
2021/04/29 09:36:33;;;;;;;12.20;10.73;;;20.40;50.40;;;;;;5006757;28;20492;-47
2021/04/29 09:39:17;;;;;;;11.23;10.03;;;20.40;50.40;;;;;;5007853;28;20458;-47
2021/04/29 09:41:49;;;;;;;11.00;10.00;;;20.40;50.90;;;;;;5009690;28;20468;-47
2021/04/29 09:44:23;;;;;;;9.43;8.53;;;20.60;50.20;;;;;;5004518;28;20461;-48
2021/04/29 09:47:02;;;;;;;11.03;9.53;;;20.90;47.90;;;;;;5009638;28;20512;-48
2021/04/29 09:49:35;;;;;;;10.30;9.30;;;21.00;48.80;;;;;;5008174;28;20468;-47
2021/04/29 09:52:25;;;;;;;9.70;8.70;;;21.20;48.50;;;;;;5008444;28;20822;-48
2021/04/29 09:54:53;;;;;;;11.57;8.87;;;21.50;48.00;;;;;;5008010;28;20481;-47
2021/04/29 09:57:26;;;;;;;8.70;7.90;;;21.40;46.40;;;;;;5010430;28;20481;-47
2021/04/29 10:00:00;;;;;;;8.77;7.73;;;21.50;47.30;;;;;;5005572;28;20461;-47
2021/04/29 10:02:29;;;;;;;7.93;7.13;;;21.60;46.00;;;;;;5004837;28;20463;-47
2021/04/29 10:04:57;;;;;;;10.30;8.43;;;21.30;46.90;;;;;;4993277;28;20902;-47
2021/04/29 10:07:23;;;;;;;8.47;7.67;;;21.20;47.10;;;;;;5009521;28;21017;-47
2021/04/29 10:09:51;;;;;;;8.20;7.40;;;21.30;46.60;;;;;;5014246;28;20462;-47
2021/04/29 10:12:20;;;;;;;9.80;8.07;;;21.00;47.80;;;;;;5008548;28;20476;-47
2021/04/29 10:14:49;;;;;;;7.23;6.63;;;20.80;47.20;;;;;;5006991;28;20543;-46
2021/04/29 10:17:18;;;;;;;6.50;5.80;;;20.70;46.40;;;;;;5004008;28;20493;-47
2021/04/29 10:19:50;;;;;;;6.90;6.20;;;20.90;45.40;;;;;;5008066;28;20465;-46
2021/04/29 10:22:18;;;;;;;8.10;7.30;;;21.10;47.00;;;;;;5023125;28;20536;-46
2021/04/29 10:24:46;;;;;;;7.73;6.70;;;21.30;45.80;;;;;;5008971;28;20450;-48
2021/04/29 10:27:16;;;;;;;6.27;5.20;;;21.40;45.30;;;;;;5009066;28;20473;-47
2021/04/29 10:29:43;;;;;;;4.97;3.67;;;21.00;46.80;;;;;;5008355;28;20682;-46
2021/04/29 10:32:15;;;;;;;5.20;3.97;;;20.20;50.60;;;;;;5010763;28;20584;-49
2021/04/29 10:34:48;;;;;;;4.50;4.10;;;19.50;53.10;;;;;;5007425;28;20471;-46
2021/04/29 10:37:19;;;;;;;6.60;3.90;;;18.90;54.60;;;;;;5008928;28;20571;-46
2021/04/29 10:40:02;;;;;;;3.57;3.30;;;18.40;57.00;;;;;;5005709;28;20509;-47
2021/04/29 10:42:30;;;;;;;3.97;3.53;;;18.00;57.70;;;;;;5007119;28;20652;-48
2021/04/29 10:45:05;;;;;;;3.10;2.70;;;17.80;57.50;;;;;;5008224;28;20461;-47
2021/04/29 10:47:32;;;;;;;3.30;3.00;;;17.50;57.10;;;;;;5007821;28;20487;-48
2021/04/29 10:50:10;;;;;;;3.37;3.00;;;17.30;58.00;;;;;;5003238;28;20464;-47
2021/04/29 10:52:50;;;;;;;3.73;3.43;;;17.40;57.50;;;;;;5009039;28;21037;-47
2021/04/29 10:55:28;;;;;;;5.73;4.57;;;17.50;55.70;;;;;;5007100;28;20953;-47
2021/04/29 10:57:55;;;;;;;6.57;5.57;;;17.70;55.10;;;;;;5006585;28;20825;-47
2021/04/29 11:00:21;;;;;;;8.13;5.60;;;17.80;54.30;;;;;;5008762;28;20459;-47
2021/04/29 11:03:03;;;;;;;7.10;6.00;;;17.90;52.50;;;;;;5009067;28;20452;-47
2021/04/29 11:05:32;;;;;;;6.73;5.40;;;17.80;53.40;;;;;;5002518;28;20548;-47
2021/04/29 11:08:08;;;;;;;5.30;4.80;;;17.80;51.70;;;;;;5008732;28;20453;-46
2021/04/29 11:10:37;;;;;;;8.00;5.60;;;17.80;51.20;;;;;;5007716;28;20474;-46
2021/04/29 11:13:06;;;;;;;6.30;5.70;;;17.90;52.80;;;;;;5007632;28;20946;-46
2021/04/29 11:15:38;;;;;;;10.00;5.60;;;17.90;50.00;;;;;;5005351;28;20697;-47
2021/04/29 11:18:06;;;;;;;7.10;5.33;;;17.80;55.20;;;;;;5006009;28;20820;-47
2021/04/29 11:20:56;;;;;;;4.93;4.43;;;17.50;59.20;;;;;;5024097;28;20895;-47
2021/04/29 11:23:40;;;;;;;3.83;3.53;;;17.40;60.10;;;;;;5004380;28;20551;-47
2021/04/29 11:26:15;;;;;;;5.47;3.80;;;17.30;61.00;;;;;;5009382;28;20452;-47
2021/04/29 11:28:41;;;;;;;4.33;3.93;;;17.30;59.60;;;;;;5005749;28;20459;-46
2021/04/29 11:31:08;;;;;;;5.37;4.10;;;17.30;59.50;;;;;;5006235;28;20795;-47
2021/04/29 11:33:35;;;;;;;5.50;4.43;;;17.30;57.80;;;;;;5008452;28;20956;-47
2021/04/29 11:36:19;;;;;;;4.93;4.53;;;17.30;55.90;;;;;;5009157;28;20492;-46
2021/04/29 11:38:53;;;;;;;6.80;5.70;;;17.30;57.90;;;;;;5023698;28;20447;-47
2021/04/29 11:41:21;;;;;;;9.33;5.77;;;17.40;57.20;;;;;;5007501;28;20459;-47
2021/04/29 11:44:16;;;;;;;7.30;5.63;;;17.50;55.70;;;;;;5008594;28;20440;-46
2021/04/29 11:46:43;;;;;;;6.03;5.50;;;17.50;51.70;;;;;;5004272;28;20463;-47
2021/04/29 11:49:09;;;;;;;8.23;6.00;;;17.60;53.10;;;;;;5006157;28;20465;-46
2021/04/29 11:51:49;;;;;;;6.73;5.73;;;17.60;51.00;;;;;;5008431;28;20750;-46
2021/04/29 11:54:18;;;;;;;6.57;5.43;;;17.60;49.60;;;;;;5009132;28;20543;-47
2021/04/29 11:56:52;;;;;;;5.50;5.00;;;17.60;49.70;;;;;;5009243;28;20587;-47
2021/04/29 11:59:18;;;;;;;9.13;6.50;;;17.60;50.30;;;;;;5004483;28;20466;-47
2021/04/29 12:01:56;;;;;;;6.07;5.47;;;17.70;49.50;;;;;;5010921;28;20539;-46
2021/04/29 12:04:24;;;;;;;6.23;5.63;;;17.80;49.60;;;;;;5009873;28;20486;-47
2021/04/29 12:06:57;;;;;;;6.00;5.40;;;17.90;50.00;;;;;;5009482;28;20506;-47
2021/04/29 12:09:26;;;;;;;5.47;4.80;;;18.00;47.90;;;;;;5011173;28;20456;-47
2021/04/29 12:12:07;;;;;;;7.17;5.90;;;18.10;49.00;;;;;;5010389;28;20464;-47
2021/04/29 12:14:34;;;;;;;7.00;6.07;;;18.20;49.60;;;;;;5009720;28;20546;-46
2021/04/29 12:17:03;;;;;;;6.17;5.60;;;18.30;49.30;;;;;;5009332;28;20578;-47
2021/04/29 12:19:31;;;;;;;9.67;6.80;;;18.40;48.20;;;;;;5010524;28;20888;-47
2021/04/29 12:21:59;;;;;;;6.70;6.07;;;18.30;48.90;;;;;;5008535;28;20486;-47
2021/04/29 12:24:28;;;;;;;9.50;6.93;;;18.30;48.90;;;;;;5012726;28;20451;-47
2021/04/29 12:26:54;;;;;;;5.87;5.30;;;18.40;50.30;;;;;;5014236;28;20997;-47
2021/04/29 12:29:22;;;;;;;4.73;4.17;;;18.60;48.10;;;;;;5011872;28;20448;-46
2021/04/29 12:31:58;;;;;;;4.87;4.13;;;18.60;48.00;;;;;;5004450;28;20540;-46
2021/04/29 12:34:26;;;;;;;3.53;3.23;;;18.60;45.70;;;;;;5007858;28;20467;-46
2021/04/29 12:36:59;;;;;;;4.60;2.63;;;18.70;46.00;;;;;;5009977;28;20499;-47
2021/04/29 12:39:29;;;;;;;2.53;2.23;;;18.80;45.00;;;;;;5012811;28;20466;-47
2021/04/29 12:41:58;;;;;;;2.97;2.00;;;18.80;43.30;;;;;;5012610;28;20771;-47